Terminal Aerodrome Forecast
Issued by NWS

Home | Current Version | Previous Version | Text Only | Print | Product List | Glossary On
Versions: 1 2 3 4 5 6 7 8 9 10 11 12 13 14 15 16 17 18 19 20 21 22 23 24 25 26 27
000
FTUS46 KEKA 220544
TAFCEC
TAF
KCEC 220544Z 2206/2306 17011KT P6SM VCSH OVC100
     FM221200 16010KT P6SM SCT050 OVC100
     FM222100 15012KT 5SM -RA BR BKN030 OVC050
     FM230300 18012KT 4SM -RA BR OVC025=

USA.gov is the U.S. government's official web portal to all federal, state and local government web resources and services.